createdAt,value
2019-05-20T00:01:12.488Z,99202.91
2019-05-20T00:03:40.463Z,99199.38
2019-05-20T00:06:10.002Z,99204.02
2019-05-20T00:08:38.342Z,99200.15
2019-05-20T00:11:06.434Z,99199.33
2019-05-20T00:13:34.454Z,99194.27
2019-05-20T00:16:02.456Z,99197.43
2019-05-20T00:18:30.431Z,99194.42
2019-05-20T00:20:58.430Z,99198.06
2019-05-20T00:23:26.485Z,99198.20
2019-05-20T00:25:54.474Z,99193.85
2019-05-20T00:28:22.443Z,99189.50
2019-05-20T00:30:50.447Z,99192.18
2019-05-20T00:33:18.419Z,99189.13
2019-05-20T00:35:46.414Z,99179.09
2019-05-20T00:38:14.387Z,99186.75
2019-05-20T00:40:42.477Z,99188.09
2019-05-20T00:43:10.527Z,99188.61
2019-05-20T00:45:38.687Z,99191.28
2019-05-20T00:48:06.682Z,99188.75
2019-05-20T00:50:34.753Z,99195.06
2019-05-20T00:53:02.718Z,99200.93
2019-05-20T00:55:31.415Z,99196.20
2019-05-20T00:57:59.518Z,99199.51
2019-05-20T01:00:27.535Z,99202.33
2019-05-20T01:02:57.179Z,99206.34
2019-05-20T01:05:25.238Z,99200.65
2019-05-20T01:07:53.288Z,99202.98
2019-05-20T01:10:21.281Z,99207.97
2019-05-20T01:12:49.248Z,99202.61
2019-05-20T01:15:17.257Z,99202.53
2019-05-20T01:17:45.299Z,99205.20
2019-05-20T01:20:13.397Z,99204.49
2019-05-20T01:22:41.447Z,99205.83
2019-05-20T01:25:09.587Z,99205.83
2019-05-20T01:27:37.713Z,99209.98
2019-05-20T01:30:05.778Z,99209.16
2019-05-20T01:32:33.862Z,99200.09
2019-05-20T01:35:01.907Z,99201.72
2019-05-20T01:37:29.975Z,99203.05
2019-05-20T01:39:58.030Z,99200.37
2019-05-20T01:42:26.039Z,99202.20
2019-05-20T01:44:54.106Z,99200.01
2019-05-20T01:47:22.117Z,99195.66
2019-05-20T01:49:50.136Z,99199.81
2019-05-20T01:52:18.172Z,99196.28
2019-05-20T01:54:46.610Z,99192.94
2019-05-20T01:57:14.691Z,99187.73
2019-05-20T01:59:42.663Z,99186.88
2019-05-20T02:02:10.836Z,99194.55
2019-05-20T02:04:38.885Z,99192.37
2019-05-20T02:07:07.043Z,99198.19
2019-05-20T02:09:35.179Z,99188.98
2019-05-20T02:12:03.265Z,99190.31
2019-05-20T02:14:34.682Z,99188.92
2019-05-20T02:17:02.961Z,99190.89
2019-05-20T02:19:31.029Z,99188.88
2019-05-20T02:21:59.095Z,99188.02
2019-05-20T02:24:27.158Z,99187.67
2019-05-20T02:26:55.171Z,99196.03
2019-05-20T02:29:23.139Z,99192.17
2019-05-20T02:31:51.223Z,99195.84
2019-05-20T02:34:19.220Z,99200.67
2019-05-20T02:36:47.303Z,99202.52
2019-05-20T02:39:15.312Z,99207.15
2019-05-20T02:41:43.317Z,99204.28
2019-05-20T02:44:11.334Z,99200.41
2019-05-20T02:46:39.391Z,99204.56
2019-05-20T02:49:07.448Z,99207.23
2019-05-20T02:51:35.465Z,99208.20
2019-05-20T02:54:03.556Z,99213.20
2019-05-20T02:56:31.544Z,99213.68
2019-05-20T02:58:59.523Z,99214.20
2019-05-20T03:01:27.675Z,99216.49
2019-05-20T03:04:10.619Z,99211.80
2019-05-20T03:06:25.401Z,99223.83
2019-05-20T03:08:53.553Z,99213.42
2019-05-20T03:11:21.560Z,99219.24
2019-05-20T03:13:49.636Z,99224.25
2019-05-20T03:16:17.780Z,99225.07
2019-05-20T03:18:45.778Z,99220.72
2019-05-20T03:21:13.843Z,99220.86
2019-05-20T03:23:41.924Z,99214.66
2019-05-20T03:26:09.994Z,99206.79
2019-05-20T03:28:38.169Z,99202.24
2019-05-20T03:31:06.166Z,99196.19
2019-05-20T03:33:34.285Z,99197.04
2019-05-20T03:36:02.318Z,99194.84
2019-05-20T03:38:30.390Z,99198.38
2019-05-20T03:40:58.357Z,99201.19
2019-05-20T03:43:26.385Z,99205.67
2019-05-20T03:45:54.470Z,99204.34
2019-05-20T03:48:22.469Z,99209.81
2019-05-20T03:50:50.524Z,99215.78
2019-05-20T03:53:18.613Z,99214.10
2019-05-20T03:55:46.595Z,99220.78
2019-05-20T03:58:14.633Z,99224.08
2019-05-20T04:00:45.836Z,99217.91
2019-05-20T04:03:14.483Z,99217.19
2019-05-20T04:05:42.626Z,99225.20
2019-05-20T04:08:11.759Z,99223.02
2019-05-20T04:10:39.797Z,99224.14
2019-05-20T04:13:07.786Z,99227.81
2019-05-20T04:15:35.835Z,99226.10
2019-05-20T04:18:03.919Z,99229.28
2019-05-20T04:20:31.965Z,99221.41
2019-05-20T04:23:00.050Z,99224.91
2019-05-20T04:25:28.174Z,99223.50
2019-05-20T04:27:56.215Z,99225.83
2019-05-20T04:30:24.194Z,99229.56
2019-05-20T04:32:52.285Z,99227.75
2019-05-20T04:35:22.758Z,99223.41
2019-05-20T04:37:50.068Z,99222.07
2019-05-20T04:40:18.217Z,99220.73
2019-05-20T04:42:46.205Z,99218.20
2019-05-20T04:45:14.221Z,99216.36
2019-05-20T04:47:42.381Z,99217.34
2019-05-20T04:50:10.439Z,99211.67
2019-05-20T04:52:38.707Z,99212.15
2019-05-20T04:55:06.834Z,99217.48
2019-05-20T04:57:34.839Z,99216.29
2019-05-20T05:00:02.843Z,99226.48
2019-05-20T05:02:31.651Z,99234.13
2019-05-20T05:04:59.699Z,99236.80
2019-05-20T05:07:27.818Z,99238.64
2019-05-20T05:09:55.948Z,99242.27
2019-05-20T05:12:23.920Z,99248.13
2019-05-20T05:14:51.994Z,99253.94
2019-05-20T05:17:20.076Z,99259.63
2019-05-20T05:19:48.143Z,99262.80
2019-05-20T05:22:16.215Z,99261.23
2019-05-20T05:24:44.475Z,99254.55
2019-05-20T05:27:12.526Z,99248.39
2019-05-20T05:29:40.611Z,99254.55
2019-05-20T05:32:08.658Z,99247.54
2019-05-20T05:34:36.672Z,99256.41
2019-05-20T05:37:04.733Z,99253.22
2019-05-20T05:39:32.883Z,99254.94
2019-05-20T05:42:00.953Z,99250.41
2019-05-20T05:44:28.979Z,99253.80
2019-05-20T05:46:57.030Z,99253.19
2019-05-20T05:49:25.187Z,99252.41
2019-05-20T05:51:53.255Z,99246.68
2019-05-20T05:54:21.275Z,99251.06
2019-05-20T05:56:49.517Z,99249.86
2019-05-20T05:59:17.540Z,99251.12
2019-05-20T06:01:45.617Z,99248.83
2019-05-20T06:04:13.702Z,99246.94
2019-05-20T06:06:41.770Z,99244.05
2019-05-20T06:09:09.777Z,99253.13
2019-05-20T06:11:37.827Z,99251.94
2019-05-20T06:14:05.837Z,99250.66
2019-05-20T06:16:36.969Z,99258.27
2019-05-20T06:19:03.592Z,99260.45
2019-05-20T06:21:31.643Z,99262.56
2019-05-20T06:23:59.698Z,99258.61
2019-05-20T06:26:27.650Z,99262.06
2019-05-20T06:28:55.732Z,99266.21
2019-05-20T06:31:23.974Z,99264.19
2019-05-20T06:33:52.003Z,99266.35
2019-05-20T06:36:26.831Z,99263.82
2019-05-20T06:39:08.817Z,99269.39
2019-05-20T06:41:36.942Z,99264.73
2019-05-20T06:44:05.040Z,99264.25
2019-05-20T06:46:33.094Z,99271.13
2019-05-20T06:49:01.135Z,99262.63
2019-05-20T06:51:29.273Z,99262.48
2019-05-20T06:53:57.379Z,99257.00
2019-05-20T06:56:25.452Z,99262.20
2019-05-20T06:58:53.522Z,99265.08
2019-05-20T07:01:21.663Z,99260.30
2019-05-20T07:03:49.791Z,99256.63
2019-05-20T07:06:17.829Z,99259.53
2019-05-20T07:08:45.798Z,99262.30
2019-05-20T07:11:13.881Z,99263.15
2019-05-20T07:13:41.924Z,99262.86
2019-05-20T07:16:09.924Z,99271.56
2019-05-20T07:18:38.631Z,99264.88
2019-05-20T07:21:06.631Z,99265.16
2019-05-20T07:23:34.777Z,99261.20
2019-05-20T07:26:02.849Z,99269.80
2019-05-20T07:28:30.838Z,99264.78
2019-05-20T07:30:59.145Z,99269.70
2019-05-20T07:33:27.328Z,99268.73
2019-05-20T07:35:55.404Z,99274.99
2019-05-20T07:38:23.519Z,99264.63
2019-05-20T07:40:51.571Z,99267.02
2019-05-20T07:43:19.547Z,99271.78
2019-05-20T07:45:47.571Z,99265.44
2019-05-20T07:48:15.650Z,99270.16
2019-05-20T07:50:43.822Z,99267.19
2019-05-20T07:53:11.903Z,99258.02
2019-05-20T07:55:41.451Z,99260.06
2019-05-20T07:58:11.578Z,99262.59
2019-05-20T08:00:39.706Z,99260.59
2019-05-20T08:03:07.773Z,99266.17
2019-05-20T08:05:35.927Z,99265.16
2019-05-20T08:08:03.985Z,99266.09
2019-05-20T08:10:32.067Z,99264.95
2019-05-20T08:13:00.158Z,99272.48
2019-05-20T08:15:28.138Z,99266.48
2019-05-20T08:17:56.309Z,99268.09
2019-05-20T08:20:24.398Z,99263.48
2019-05-20T08:22:52.571Z,99266.86
2019-05-20T08:25:20.615Z,99265.68
2019-05-20T08:27:48.684Z,99267.66
2019-05-20T08:30:19.594Z,99266.05
2019-05-20T08:32:47.640Z,99269.98
2019-05-20T08:35:15.678Z,99267.36
2019-05-20T08:37:45.630Z,99264.70
2019-05-20T08:40:13.640Z,99270.48
2019-05-20T08:42:41.620Z,99273.04
2019-05-20T08:45:09.778Z,99276.58
2019-05-20T08:47:37.783Z,99281.32
2019-05-20T08:50:11.358Z,99283.08
2019-05-20T08:52:36.206Z,99274.79
2019-05-20T08:55:04.414Z,99274.20
2019-05-20T08:57:32.413Z,99268.22
2019-05-20T09:00:00.475Z,99274.92
2019-05-20T09:02:28.529Z,99273.30
2019-05-20T09:04:56.496Z,99275.03
2019-05-20T09:07:24.582Z,99276.29
2019-05-20T09:09:52.766Z,99282.33
2019-05-20T09:12:20.792Z,99275.78
2019-05-20T09:14:48.822Z,99270.91
2019-05-20T09:17:16.832Z,99282.66
2019-05-20T09:19:47.043Z,99278.97
2019-05-20T09:22:14.686Z,99270.62
2019-05-20T09:24:42.847Z,99272.66
2019-05-20T09:27:11.017Z,99273.84
2019-05-20T09:29:39.076Z,99267.98
2019-05-20T09:32:14.607Z,99267.98
2019-05-20T09:34:42.652Z,99291.43
2019-05-20T09:37:10.868Z,99291.41
2019-05-20T09:39:38.924Z,99291.19
2019-05-20T09:42:07.031Z,99287.38
2019-05-20T09:44:35.027Z,99283.09
2019-05-20T09:47:03.031Z,99286.77
2019-05-20T09:49:31.035Z,99284.97
2019-05-20T09:51:59.125Z,99280.48
2019-05-20T09:54:27.090Z,99286.02
2019-05-20T09:56:55.098Z,99276.28
2019-05-20T09:59:23.067Z,99278.80
2019-05-20T10:01:51.068Z,99283.86
2019-05-20T10:04:19.116Z,99288.33
2019-05-20T10:06:47.123Z,99284.10
2019-05-20T10:09:15.098Z,99280.35
2019-05-20T10:11:43.121Z,99273.28
2019-05-20T10:14:11.190Z,99282.36
2019-05-20T10:16:39.212Z,99275.66
2019-05-20T10:19:07.204Z,99283.67
2019-05-20T10:21:35.206Z,99283.25
2019-05-20T10:24:03.379Z,99286.48
2019-05-20T10:26:31.451Z,99289.26
2019-05-20T10:29:18.535Z,99287.44
2019-05-20T10:31:46.551Z,99277.47
2019-05-20T10:34:14.621Z,99271.74
2019-05-20T10:36:42.683Z,99275.82
2019-05-20T10:39:10.670Z,99274.52
2019-05-20T10:41:38.653Z,99272.91
2019-05-20T10:44:06.851Z,99275.66
2019-05-20T10:46:34.822Z,99280.92
2019-05-20T10:49:03.033Z,99279.11
2019-05-20T10:51:31.151Z,99273.11
2019-05-20T10:53:59.224Z,99278.97
2019-05-20T10:56:27.207Z,99272.31
2019-05-20T10:58:55.210Z,99270.98
2019-05-20T11:01:23.272Z,99271.84
2019-05-20T11:03:51.533Z,99276.83
2019-05-20T11:06:19.532Z,99273.82
2019-05-20T11:08:47.536Z,99274.78
2019-05-20T11:11:15.585Z,99275.95
2019-05-20T11:13:43.679Z,99271.60
2019-05-20T11:16:11.660Z,99264.67
2019-05-20T11:18:39.692Z,99266.33
2019-05-20T11:21:07.826Z,99267.30
2019-05-20T11:23:35.952Z,99263.87
2019-05-20T11:26:04.008Z,99261.50
2019-05-20T11:28:32.008Z,99260.41
2019-05-20T11:30:59.983Z,99259.92
2019-05-20T11:33:28.001Z,99269.11
2019-05-20T11:35:56.046Z,99265.61
2019-05-20T11:38:24.071Z,99264.27
2019-05-20T11:40:52.131Z,99261.59
2019-05-20T11:43:20.228Z,99259.61
2019-05-20T11:45:48.298Z,99255.75
2019-05-20T11:48:16.292Z,99263.16
2019-05-20T11:50:44.292Z,99261.13
2019-05-20T11:53:12.439Z,99262.32
2019-05-20T11:55:40.407Z,99269.73
2019-05-20T11:58:15.675Z,99265.53
2019-05-20T12:00:38.272Z,99260.66
2019-05-20T12:03:06.384Z,99266.55
2019-05-20T12:05:34.503Z,99262.00
2019-05-20T12:08:02.512Z,99257.16
2019-05-20T12:10:30.626Z,99251.94
2019-05-20T12:12:58.644Z,99251.63
2019-05-20T12:15:26.700Z,99251.11
2019-05-20T12:17:54.708Z,99247.92
2019-05-20T12:20:22.807Z,99240.41
2019-05-20T12:22:50.924Z,99239.73
2019-05-20T12:25:19.010Z,99228.66
2019-05-20T12:27:47.159Z,99230.48
2019-05-20T12:30:15.268Z,99230.17
2019-05-20T12:32:43.338Z,99223.13
2019-05-20T12:35:11.528Z,99227.48
2019-05-20T12:37:39.602Z,99221.78
2019-05-20T12:40:08.520Z,99214.58
2019-05-20T12:42:36.936Z,99214.06
2019-05-20T12:45:05.383Z,99204.33
2019-05-20T12:47:33.516Z,99203.48
2019-05-20T12:50:01.746Z,99198.63
2019-05-20T12:52:29.787Z,99203.48
2019-05-20T12:55:08.021Z,99209.37
2019-05-20T12:57:27.793Z,99205.34
2019-05-20T12:59:55.817Z,99214.73
2019-05-20T13:02:23.880Z,99210.19
2019-05-20T13:04:51.965Z,99216.41
2019-05-20T13:07:20.019Z,99210.03
2019-05-20T13:09:48.175Z,99209.21
2019-05-20T13:12:16.239Z,99204.83
2019-05-20T13:14:44.423Z,99196.28
2019-05-20T13:17:12.512Z,99207.34
2019-05-20T13:19:40.607Z,99212.72
2019-05-20T13:22:08.678Z,99208.36
2019-05-20T13:24:36.675Z,99209.21
2019-05-20T13:27:04.748Z,99212.72
2019-05-20T13:29:32.844Z,99204.66
2019-05-20T13:32:00.973Z,99205.02
2019-05-20T13:34:29.135Z,99194.77
2019-05-20T13:36:57.294Z,99199.49
2019-05-20T13:39:25.329Z,99197.62
2019-05-20T13:41:53.376Z,99195.80
2019-05-20T13:44:21.414Z,99189.08
2019-05-20T13:46:50.136Z,99191.27
2019-05-20T13:49:18.208Z,99181.36
2019-05-20T13:51:46.283Z,99186.23
2019-05-20T13:54:14.279Z,99175.66
2019-05-20T13:56:42.480Z,99172.00
2019-05-20T13:59:10.572Z,99174.16
2019-05-20T14:01:38.538Z,99165.94
2019-05-20T14:04:06.615Z,99164.43
2019-05-20T14:06:34.663Z,99164.80
2019-05-20T14:09:07.504Z,99167.31
2019-05-20T14:11:35.025Z,99160.60
2019-05-20T14:14:03.146Z,99166.79
2019-05-20T14:16:31.139Z,99161.42
2019-05-20T14:18:59.155Z,99166.30
2019-05-20T14:21:27.125Z,99156.91
2019-05-20T14:23:55.126Z,99150.02
2019-05-20T14:26:23.098Z,99147.66
2019-05-20T14:28:51.262Z,99150.88
2019-05-20T14:31:19.239Z,99148.03
2019-05-20T14:33:47.233Z,99149.20
2019-05-20T14:36:37.892Z,99148.55
2019-05-20T14:38:44.998Z,99137.28
2019-05-20T14:41:21.494Z,99133.78
2019-05-20T14:43:43.379Z,99135.61
2019-05-20T14:46:11.499Z,99133.42
2019-05-20T14:48:39.464Z,99134.92
2019-05-20T14:51:07.530Z,99131.58
2019-05-20T14:53:35.666Z,99122.34
2019-05-20T14:56:03.778Z,99125.69
2019-05-20T14:58:31.955Z,99111.41
2019-05-20T15:01:00.025Z,99113.44
2019-05-20T15:03:30.043Z,99120.32
2019-05-20T15:05:58.047Z,99143.30
2019-05-20T15:08:26.026Z,99144.45
2019-05-20T15:10:54.192Z,99147.30
2019-05-20T15:13:22.446Z,99153.36
2019-05-20T15:15:50.444Z,99219.80
2019-05-20T15:18:18.879Z,99254.53
2019-05-20T15:20:46.977Z,99240.91
2019-05-20T15:23:15.200Z,99244.77
2019-05-20T15:25:43.226Z,99223.27
2019-05-20T15:28:11.267Z,99214.20
2019-05-20T15:30:39.343Z,99198.41
2019-05-20T15:33:07.407Z,99177.42
2019-05-20T15:35:35.511Z,99184.29
2019-05-20T15:38:03.604Z,99183.76
2019-05-20T15:40:31.684Z,99186.27
2019-05-20T15:42:59.664Z,99184.85
2019-05-20T15:45:27.793Z,99184.20
2019-05-20T15:47:55.880Z,99181.30
2019-05-20T15:50:23.979Z,99179.46
2019-05-20T15:52:52.117Z,99179.26
2019-05-20T15:55:20.131Z,99198.72
2019-05-20T15:57:48.212Z,99204.41
2019-05-20T16:00:16.368Z,99204.72
2019-05-20T16:02:44.396Z,99190.12
2019-05-20T16:05:12.572Z,99175.52
2019-05-20T16:07:40.559Z,99172.48
2019-05-20T16:10:08.740Z,99161.09
2019-05-20T16:12:36.709Z,99157.87
2019-05-20T16:15:05.027Z,99162.53
2019-05-20T16:17:33.154Z,99161.36
2019-05-20T16:20:06.323Z,99154.48
2019-05-20T16:22:32.671Z,99156.98
2019-05-20T16:25:00.771Z,99170.55
2019-05-20T16:27:32.640Z,99175.22
2019-05-20T16:30:06.169Z,99175.05
2019-05-20T16:32:28.349Z,99167.16
2019-05-20T16:34:56.326Z,99166.47
2019-05-20T16:37:24.427Z,99168.30
2019-05-20T16:39:52.484Z,99157.88
2019-05-20T16:42:20.646Z,99161.57
2019-05-20T16:44:48.830Z,99164.41
2019-05-20T16:47:16.859Z,99166.76
2019-05-20T16:49:44.911Z,99168.26
2019-05-20T16:52:12.920Z,99161.19
2019-05-20T16:54:41.079Z,99162.20
2019-05-20T16:57:09.240Z,99166.70
2019-05-20T16:59:37.333Z,99169.55
2019-05-20T17:02:05.298Z,99175.43
2019-05-20T17:04:33.368Z,99175.58
2019-05-20T17:07:01.448Z,99173.06
2019-05-20T17:09:29.569Z,99181.26
2019-05-20T17:11:57.517Z,99192.95
2019-05-20T17:14:25.592Z,99186.93
2019-05-20T17:16:53.612Z,99193.27
2019-05-20T17:19:21.599Z,99189.92
2019-05-20T17:21:49.615Z,99197.59
2019-05-20T17:24:17.666Z,99188.16
2019-05-20T17:26:45.878Z,99189.16
2019-05-20T17:29:13.936Z,99069.63
2019-05-20T17:31:42.020Z,99189.81
2019-05-20T17:34:11.551Z,99217.25
2019-05-20T17:36:39.654Z,99192.80
2019-05-20T17:39:07.847Z,99182.72
2019-05-20T17:41:36.025Z,99172.67
2019-05-20T17:44:04.278Z,99181.69
2019-05-20T17:46:32.234Z,99178.34
2019-05-20T17:49:00.362Z,99181.17
2019-05-20T17:51:28.483Z,99196.40
2019-05-20T17:53:56.466Z,99207.27
2019-05-20T17:56:24.472Z,99216.31
2019-05-20T17:58:52.443Z,99211.11
2019-05-20T18:01:20.515Z,99210.26
2019-05-20T18:03:48.572Z,99190.31
2019-05-20T18:06:16.661Z,99206.55
2019-05-20T18:08:47.661Z,99237.03
2019-05-20T18:11:18.975Z,99279.38
2019-05-20T18:13:45.447Z,99270.52
2019-05-20T18:16:13.523Z,99227.80
2019-05-20T18:18:41.579Z,99211.51
2019-05-20T18:21:09.550Z,99180.36
2019-05-20T18:23:37.631Z,99190.23
2019-05-20T18:26:05.631Z,99195.89
2019-05-20T18:28:33.800Z,99216.50
2019-05-20T18:31:01.849Z,99242.92
2019-05-20T18:33:30.032Z,99254.02
2019-05-20T18:35:58.083Z,99234.89
2019-05-20T18:38:26.264Z,99232.36
2019-05-20T18:40:54.318Z,99215.61
2019-05-20T18:43:22.311Z,99200.18
2019-05-20T18:45:50.389Z,99201.83
2019-05-20T18:48:18.475Z,99207.33
2019-05-20T18:50:46.608Z,99207.97
2019-05-20T18:53:14.755Z,99205.29
2019-05-20T18:55:42.732Z,99210.80
2019-05-20T18:58:13.890Z,99206.45
2019-05-20T19:00:41.878Z,99207.30
2019-05-20T19:03:09.870Z,99216.45
2019-05-20T19:05:37.853Z,99206.11
2019-05-20T19:08:05.926Z,99196.03
2019-05-20T19:10:33.883Z,99189.00
2019-05-20T19:13:02.042Z,99183.28
2019-05-20T19:15:30.151Z,99186.48
2019-05-20T19:17:58.234Z,99183.58
2019-05-20T19:20:26.201Z,99184.25
2019-05-20T19:22:54.275Z,99197.64
2019-05-20T19:25:35.468Z,99202.63
2019-05-20T19:27:52.038Z,99211.19
2019-05-20T19:30:20.015Z,99223.38
2019-05-20T19:35:22.145Z,99237.27
2019-05-20T19:37:50.270Z,99226.22
2019-05-20T19:40:18.246Z,99225.02
2019-05-20T19:42:46.332Z,99241.09
2019-05-20T19:45:14.453Z,99250.09
2019-05-20T19:47:42.542Z,99242.58
2019-05-20T19:50:10.595Z,99242.21
2019-05-20T19:52:38.627Z,99236.19
2019-05-20T19:55:06.751Z,99236.67
2019-05-20T19:57:34.846Z,99225.63
2019-05-20T20:00:02.900Z,99223.58
2019-05-20T20:02:30.955Z,99232.09
2019-05-20T20:04:58.997Z,99227.74
2019-05-20T20:07:28.774Z,99220.20
2019-05-20T20:09:56.676Z,99222.53
2019-05-20T20:12:24.832Z,99223.02
2019-05-20T20:14:52.879Z,99230.72
2019-05-20T20:17:20.936Z,99214.80
2019-05-20T20:19:49.087Z,99202.02
2019-05-20T20:22:17.056Z,99221.61
2019-05-20T20:24:45.128Z,99207.03
2019-05-20T20:27:13.111Z,99194.66
2019-05-20T20:29:41.269Z,99158.66
2019-05-20T20:32:09.242Z,99183.24
2019-05-20T20:34:37.247Z,99197.62
2019-05-20T20:37:05.224Z,99203.95
2019-05-20T20:39:34.504Z,99215.17
2019-05-20T20:42:02.788Z,99214.33
2019-05-20T20:44:30.883Z,99204.25
2019-05-20T20:46:58.944Z,99203.43
2019-05-20T20:49:26.939Z,99200.90
2019-05-20T20:51:55.005Z,99200.90
2019-05-20T20:54:23.012Z,99199.19
2019-05-20T20:56:50.998Z,99192.65
2019-05-20T20:59:19.159Z,99188.30
2019-05-20T21:01:47.118Z,99194.66
2019-05-20T21:04:15.132Z,99194.28
2019-05-20T21:06:43.259Z,99197.48
2019-05-20T21:09:11.280Z,99196.14
2019-05-20T21:11:39.260Z,99203.47
2019-05-20T21:14:07.267Z,99198.11
2019-05-20T21:16:35.243Z,99201.78
2019-05-20T21:19:03.689Z,99197.07
2019-05-20T21:21:35.491Z,99192.20
2019-05-20T21:24:03.582Z,99193.20
2019-05-20T21:26:31.702Z,99200.52
2019-05-20T21:28:59.803Z,99203.57
2019-05-20T21:31:27.791Z,99201.37
2019-05-20T21:33:55.795Z,99202.23
2019-05-20T21:36:23.953Z,99201.37
2019-05-20T21:38:52.075Z,99205.88
2019-05-20T21:41:21.044Z,99200.67
2019-05-20T21:43:49.052Z,99199.33
2019-05-20T21:46:18.583Z,99203.72
2019-05-20T21:48:46.666Z,99203.34
2019-05-20T21:51:14.821Z,99204.84
2019-05-20T21:53:42.893Z,99203.50
2019-05-20T21:56:10.955Z,99202.16
2019-05-20T21:58:39.007Z,99204.02
2019-05-20T22:01:07.252Z,99202.83
2019-05-20T22:03:35.323Z,99201.97
2019-05-20T22:06:03.453Z,99211.48
2019-05-20T22:08:31.592Z,99206.13
2019-05-20T22:10:59.732Z,99211.14
2019-05-20T22:13:27.708Z,99203.45
2019-05-20T22:15:55.991Z,99199.25
2019-05-20T22:18:24.056Z,99197.91
2019-05-20T22:20:52.215Z,99193.19
2019-05-20T22:23:45.210Z,99202.07
2019-05-20T22:26:13.254Z,99194.19
2019-05-20T22:28:41.279Z,99201.36
2019-05-20T22:31:09.232Z,99199.20
2019-05-20T22:33:41.210Z,99194.82
2019-05-20T22:36:06.949Z,99195.67
2019-05-20T22:38:34.999Z,99201.17
2019-05-20T22:41:03.006Z,99198.98
2019-05-20T22:43:31.058Z,99201.80
2019-05-20T22:45:59.085Z,99194.78
2019-05-20T22:48:27.063Z,99188.57
2019-05-20T22:50:55.062Z,99177.20
2019-05-20T22:53:23.192Z,99175.48
2019-05-20T22:55:51.265Z,99181.84
2019-05-20T22:58:19.312Z,99176.16
2019-05-20T23:00:47.387Z,99178.13
2019-05-20T23:03:15.597Z,99189.82
2019-05-20T23:05:43.757Z,99185.44
2019-05-20T23:08:11.785Z,99167.38
2019-05-20T23:10:39.855Z,99167.38
2019-05-20T23:13:07.830Z,99163.52
2019-05-20T23:15:35.830Z,99172.02
2019-05-20T23:18:03.875Z,99173.98
2019-05-20T23:20:31.872Z,99176.66
2019-05-20T23:22:59.956Z,99171.31
2019-05-20T23:25:28.028Z,99167.45
2019-05-20T23:27:56.002Z,99155.08
2019-05-20T23:30:24.016Z,99156.89
2019-05-20T23:32:52.158Z,99151.69
2019-05-20T23:35:20.280Z,99134.45
2019-05-20T23:37:48.339Z,99135.12
2019-05-20T23:40:16.338Z,99143.28
2019-05-20T23:42:44.319Z,99158.48
2019-05-20T23:45:12.340Z,99163.48
2019-05-20T23:47:40.318Z,99168.32
2019-05-20T23:50:08.318Z,99173.67
2019-05-20T23:52:36.284Z,99169.80
2019-05-20T23:55:04.495Z,99177.00
2019-05-20T23:57:32.428Z,99172.63
